Marten — 5BNU3 — position and weather

sailwx.info

Track history (hours):
 
Tides and Currents Weather Stations Pressure Air Temp Water Temp Dewpoint Dewpoint Depression Visibility Wind Speed Wind Dir Waves Ship Positions

Marten

Last reported at 2017-Jan-18 05:13 UTC. Time now 2017-Jan-21 00:12 UTC.
Position N 47°45' W 004°53'.

Length 90 m; draft 5.7 m.

Type: Ship. MMSI: 212376000.

Date/timePositionNaut miles runAvg speedWind from/ knotsBaromVisibWave heightAir tempDewpointWater temp
2017-Jan-18 05:13N 47°45' W 004°53'7 9.8
2017-Jan-18 04:29N 47°50' W 005°01'135 7.5
2017-Jan-17 10:32N 49°48' W 003°21'10 9.0
2017-Jan-17 09:26N 49°54' W 003°08'8 9.2
2017-Jan-17 08:33N 49°57' W 002°57'10211.3
2017-Jan-16 23:33N 50°27' W 000°25'9 8.6
2017-Jan-16 22:33N 50°30' W 000°12'10 9.6
2017-Jan-16 21:34N 50°32' E 000°03'1110.9
2017-Jan-16 20:34N 50°36' E 000°19'1212.0
2017-Jan-16 19:34N 50°39' E 000°37'2311.4
2017-Jan-16 17:33N 50°53' E 001°06'10 9.9
2017-Jan-16 16:33N 50°59' E 001°18'8 8.3
2017-Jan-16 15:33N 51°05' E 001°28'7 7.2
2017-Jan-16 14:34N 51°10' E 001°37'8 8.2
2017-Jan-16 13:33N 51°15' E 001°46'1110.6
2017-Jan-16 12:34N 51°25' E 001°54'1312.6
2017-Jan-16 11:33N 51°35' E 002°07'189 9.9
2017-Jan-15 16:27N 53°44' E 005°53'74 9.1
2017-Jan-15 08:20N 54°01' E 007°55'8 9.7
2017-Jan-15 07:32N 54°01' E 008°08'1311.8
2017-Jan-15 06:28N 53°59' E 008°29'1212.8
2017-Jan-15 05:33N 53°52' E 008°45'1211.8
2017-Jan-15 04:33N 53°53' E 009°05'3 2.6
2017-Jan-15 03:33N 53°54' E 009°09'1 0.5
2017-Jan-15 02:31N 53°54' E 009°10'0 0.0
2017-Jan-15 01:31N 53°54' E 009°10'0 0.0
2017-Jan-15 00:31N 53°54' E 009°10'0 0.0
2017-Jan-14 23:31N 53°54' E 009°10'0 0.0
2017-Jan-14 22:31N 53°54' E 009°10'0 0.0
2017-Jan-14 21:31N 53°54' E 009°10'0 0.0
2017-Jan-14 20:31N 53°54' E 009°10'0 0.0
2017-Jan-14 19:31N 53°54' E 009°10'0 0.0
2017-Jan-14 18:31N 53°54' E 009°10'0 0.0
2017-Jan-14 17:31N 53°54' E 009°10'0 0.0
2017-Jan-14 16:31N 53°54' E 009°10'0 0.0
2017-Jan-14 15:34N 53°54' E 009°10'0 0.0
2017-Jan-14 14:33N 53°54' E 009°10'0 0.0
2017-Jan-14 13:34N 53°54' E 009°10'0 0.0
2017-Jan-14 12:34N 53°54' E 009°10'0 0.0
2017-Jan-14 11:31N 53°54' E 009°10'0 0.0
2017-Jan-14 10:34N 53°54' E 009°10'0 0.0
2017-Jan-14 09:34N 53°54' E 009°10'0 0.0
2017-Jan-14 08:34N 53°54' E 009°10'0 0.0
2017-Jan-14 07:31N 53°54' E 009°10'0 0.0
2017-Jan-14 06:33N 53°54' E 009°10'0 0.0
2017-Jan-14 05:33N 53°54' E 009°10'0 0.0
2017-Jan-14 04:33N 53°54' E 009°10'0 0.0
2017-Jan-14 03:34N 53°54' E 009°10'0 0.0
2017-Jan-13 23:33N 53°54' E 009°10'0 0.0
2017-Jan-13 22:33N 53°54' E 009°10'0 0.0
2017-Jan-13 21:33N 53°54' E 009°10'0 0.0
2017-Jan-13 20:33N 53°54' E 009°10'0 0.0
2017-Jan-13 19:34N 53°54' E 009°10'0 0.0
2017-Jan-13 18:34N 53°54' E 009°10'0 0.0
2017-Jan-13 17:30N 53°54' E 009°10'0 0.0
2017-Jan-13 16:33N 53°54' E 009°10'0 0.0
2017-Jan-13 15:33N 53°54' E 009°10'0 0.0
2017-Jan-13 14:33N 53°54' E 009°10'0 0.0
2017-Jan-13 13:33N 53°54' E 009°10'0 0.0
2017-Jan-13 12:33N 53°54' E 009°10'0 0.0
2017-Jan-13 11:33N 53°54' E 009°10'0 0.0
2017-Jan-13 10:33N 53°54' E 009°10'0 0.0
2017-Jan-13 09:28N 53°54' E 009°10'0 0.0
2017-Jan-13 08:33N 53°54' E 009°10'0 0.0
2017-Jan-13 07:31N 53°54' E 009°10'0 0.0
2017-Jan-13 06:33N 53°54' E 009°10'0 0.0
2017-Jan-13 05:31N 53°54' E 009°10'0 0.0
2017-Jan-13 04:33N 53°54' E 009°10'0 0.0
2017-Jan-13 03:33N 53°54' E 009°10'0 0.0
2017-Jan-13 02:33N 53°54' E 009°10'0 0.0
2017-Jan-13 01:33N 53°54' E 009°10'0 0.0
2017-Jan-13 00:33N 53°54' E 009°10'0 0.0
2017-Jan-12 23:33N 53°54' E 009°10'0 0.0
2017-Jan-12 22:33N 53°54' E 009°10'0 0.0
2017-Jan-12 21:33N 53°54' E 009°10'0 0.0
2017-Jan-12 20:25N 53°54' E 009°10'0 0.0
2017-Jan-12 19:31N 53°54' E 009°10'0 0.0
2017-Jan-12 18:31N 53°54' E 009°10'0 0.0
2017-Jan-12 17:31N 53°54' E 009°10'0 0.0
2017-Jan-12 16:33N 53°54' E 009°10'0 0.0
2017-Jan-12 15:33N 53°54' E 009°10'0 0.0
2017-Jan-12 14:33N 53°54' E 009°10'0 0.0
2017-Jan-12 13:33N 53°54' E 009°10'0 0.0
2017-Jan-12 12:33N 53°54' E 009°10'0 0.0
2017-Jan-12 11:33N 53°54' E 009°10'0 0.0
2017-Jan-12 10:33N 53°54' E 009°10'0 0.0
2017-Jan-12 09:33N 53°54' E 009°10'0 0.0
2017-Jan-12 08:33N 53°54' E 009°10'0 0.0
2017-Jan-12 07:31N 53°54' E 009°10'0 0.0
2017-Jan-12 06:33N 53°54' E 009°10'0 0.0
2017-Jan-12 05:33N 53°54' E 009°10'0 0.0
2017-Jan-12 04:34N 53°54' E 009°10'0 0.0
2017-Jan-12 03:33N 53°54' E 009°10'0 0.0
2017-Jan-12 02:33N 53°54' E 009°10'0 0.0
2017-Jan-12 01:33N 53°54' E 009°10'0 0.0
2017-Jan-12 00:33N 53°54' E 009°10'0 0.0
2017-Jan-11 23:33N 53°54' E 009°10'0 0.0
2017-Jan-11 22:33N 53°54' E 009°10'0 0.0
2017-Jan-11 21:33N 53°54' E 009°10'0 0.0
2017-Jan-11 20:34N 53°54' E 009°10'0 0.0
2017-Jan-11 19:33N 53°54' E 009°10'0 0.0
2017-Jan-11 18:33N 53°54' E 009°10'0 0.0
2017-Jan-11 17:33N 53°54' E 009°10'0 0.0
2017-Jan-11 16:34N 53°54' E 009°10'0 0.0
2017-Jan-11 15:33N 53°54' E 009°10'0 0.0
2017-Jan-11 14:33N 53°54' E 009°10'0 0.0
2017-Jan-11 13:33N 53°54' E 009°10'0 0.0
2017-Jan-11 12:33N 53°54' E 009°10'0 0.0
2017-Jan-11 11:33N 53°54' E 009°10'0 0.0
2017-Jan-11 10:33N 53°54' E 009°10'0 0.0
2017-Jan-11 09:33N 53°54' E 009°10'0 0.0
2017-Jan-11 08:33N 53°54' E 009°10'0 0.0
2017-Jan-11 07:33N 53°54' E 009°10'0 0.0
2017-Jan-11 06:33N 53°54' E 009°10'0 0.3
2017-Jan-11 05:33N 53°54' E 009°10'8 7.9
2017-Jan-11 04:33N 54°01' E 009°18'5 5.3
2017-Jan-11 03:33N 54°06' E 009°20'52 6.3
2017-Jan-10 19:19N 54°34' E 010°35'7 9.8
2017-Jan-10 18:34N 54°35' E 010°48'1010.3
2017-Jan-10 17:34N 54°36' E 011°05'1211.6
2017-Jan-10 16:34N 54°32' E 011°24'1110.8
2017-Jan-10 15:33N 54°29' E 011°42'1010.3
2017-Jan-10 14:33N 54°27' E 011°60'94 7.3
2017-Jan-10 01:33N 53°46' E 014°24'1010.4
2017-Jan-10 00:33N 53°37' E 014°35'9 9.0
2017-Jan-09 23:33N 53°29' E 014°37'4 4.0
2017-Jan-09 22:33N 53°24' E 014°37'0 0.0
2017-Jan-09 21:33N 53°24' E 014°37'0 0.0
2017-Jan-09 20:33N 53°24' E 014°37'0 0.0
2017-Jan-09 19:33N 53°24' E 014°37'0 0.0
2017-Jan-09 18:30N 53°25' E 014°37'0 0.0
2017-Jan-09 17:33N 53°24' E 014°37'0 0.0
2017-Jan-09 16:33N 53°24' E 014°37'0 0.0
2017-Jan-09 15:30N 53°24' E 014°37'0 0.0
2017-Jan-09 14:33N 53°24' E 014°37'0 0.0
2017-Jan-09 13:33N 53°25' E 014°37'0 0.0
2017-Jan-09 12:33N 53°25' E 014°37'0 0.0
2017-Jan-09 11:33N 53°24' E 014°37'0 0.0
2017-Jan-09 10:33N 53°24' E 014°37'0 0.0
2017-Jan-09 09:33N 53°24' E 014°37'0 0.0
2017-Jan-09 08:33N 53°24' E 014°37'0 0.0
2017-Jan-09 07:33N 53°24' E 014°37'0 0.0
2017-Jan-09 06:33N 53°24' E 014°37'0 0.0
2017-Jan-09 05:30N 53°24' E 014°37'0 0.0
2017-Jan-09 04:33N 53°24' E 014°37'0 0.0
2017-Jan-09 03:33N 53°24' E 014°37'0 0.0
2017-Jan-09 02:33N 53°24' E 014°37'0 0.0
2017-Jan-09 01:33N 53°24' E 014°37'0 0.0
2017-Jan-09 00:30N 53°24' E 014°37'0 0.0
2017-Jan-08 23:33N 53°24' E 014°37'0 0.0
2017-Jan-08 22:33N 53°24' E 014°37'0 0.0
2017-Jan-08 21:33N 53°24' E 014°37'0 0.0
2017-Jan-08 20:33N 53°24' E 014°37'0 0.0
2017-Jan-08 19:33N 53°24' E 014°37'0 0.0
2017-Jan-08 18:33N 53°24' E 014°37'0 0.0
2017-Jan-08 17:27N 53°24' E 014°37'0 0.0
2017-Jan-08 16:33N 53°24' E 014°37'0 0.0
2017-Jan-08 15:33N 53°24' E 014°37'0 0.0
2017-Jan-08 14:33N 53°24' E 014°37'0 0.0
2017-Jan-08 13:33N 53°25' E 014°37'0 0.0
2017-Jan-08 12:33N 53°24' E 014°37'4 3.6
2017-Jan-08 11:33N 53°28' E 014°36'9 9.0
2017-Jan-08 10:33N 53°37' E 014°35'1110.9
2017-Jan-08 09:33N 53°46' E 014°24'  
Track history (hours):
 
Tides and Currents Weather Stations Pressure Air Temp Water Temp Dewpoint Dewpoint Depression Visibility Wind Speed Wind Dir Waves Ship Positions

Marten

Last reported at 2017-Jan-18 05:13 UTC. Time now 2017-Jan-21 00:12 UTC.
Position N 47°45' W 004°53'.

Length 90 m; draft 5.7 m.

Type: Ship. MMSI: 212376000.

Date/timePositionNaut miles runAvg speedWind from/ knotsBaromVisibWave heightAir tempDewpointWater temp
2017-Jan-18 05:13N 47°45' W 004°53'7 9.8
2017-Jan-18 04:29N 47°50' W 005°01'135 7.5
2017-Jan-17 10:32N 49°48' W 003°21'10 9.0
2017-Jan-17 09:26N 49°54' W 003°08'8 9.2
2017-Jan-17 08:33N 49°57' W 002°57'10211.3
2017-Jan-16 23:33N 50°27' W 000°25'9 8.6
2017-Jan-16 22:33N 50°30' W 000°12'10 9.6
2017-Jan-16 21:34N 50°32' E 000°03'1110.9
2017-Jan-16 20:34N 50°36' E 000°19'1212.0
2017-Jan-16 19:34N 50°39' E 000°37'2311.4
2017-Jan-16 17:33N 50°53' E 001°06'10 9.9
2017-Jan-16 16:33N 50°59' E 001°18'8 8.3
2017-Jan-16 15:33N 51°05' E 001°28'7 7.2
2017-Jan-16 14:34N 51°10' E 001°37'8 8.2
2017-Jan-16 13:33N 51°15' E 001°46'1110.6
2017-Jan-16 12:34N 51°25' E 001°54'1312.6
2017-Jan-16 11:33N 51°35' E 002°07'189 9.9
2017-Jan-15 16:27N 53°44' E 005°53'74 9.1
2017-Jan-15 08:20N 54°01' E 007°55'8 9.7
2017-Jan-15 07:32N 54°01' E 008°08'1311.8
2017-Jan-15 06:28N 53°59' E 008°29'1212.8
2017-Jan-15 05:33N 53°52' E 008°45'1211.8
2017-Jan-15 04:33N 53°53' E 009°05'3 2.6
2017-Jan-15 03:33N 53°54' E 009°09'1 0.5
2017-Jan-15 02:31N 53°54' E 009°10'0 0.0
2017-Jan-15 01:31N 53°54' E 009°10'0 0.0
2017-Jan-15 00:31N 53°54' E 009°10'0 0.0
2017-Jan-14 23:31N 53°54' E 009°10'0 0.0
2017-Jan-14 22:31N 53°54' E 009°10'0 0.0
2017-Jan-14 21:31N 53°54' E 009°10'0 0.0
2017-Jan-14 20:31N 53°54' E 009°10'0 0.0
2017-Jan-14 19:31N 53°54' E 009°10'0 0.0
2017-Jan-14 18:31N 53°54' E 009°10'0 0.0
2017-Jan-14 17:31N 53°54' E 009°10'0 0.0
2017-Jan-14 16:31N 53°54' E 009°10'0 0.0
2017-Jan-14 15:34N 53°54' E 009°10'0 0.0
2017-Jan-14 14:33N 53°54' E 009°10'0 0.0
2017-Jan-14 13:34N 53°54' E 009°10'0 0.0
2017-Jan-14 12:34N 53°54' E 009°10'0 0.0
2017-Jan-14 11:31N 53°54' E 009°10'0 0.0
2017-Jan-14 10:34N 53°54' E 009°10'0 0.0
2017-Jan-14 09:34N 53°54' E 009°10'0 0.0
2017-Jan-14 08:34N 53°54' E 009°10'0 0.0
2017-Jan-14 07:31N 53°54' E 009°10'0 0.0
2017-Jan-14 06:33N 53°54' E 009°10'0 0.0
2017-Jan-14 05:33N 53°54' E 009°10'0 0.0
2017-Jan-14 04:33N 53°54' E 009°10'0 0.0
2017-Jan-14 03:34N 53°54' E 009°10'0 0.0
2017-Jan-13 23:33N 53°54' E 009°10'0 0.0
2017-Jan-13 22:33N 53°54' E 009°10'0 0.0
2017-Jan-13 21:33N 53°54' E 009°10'0 0.0
2017-Jan-13 20:33N 53°54' E 009°10'0 0.0
2017-Jan-13 19:34N 53°54' E 009°10'0 0.0
2017-Jan-13 18:34N 53°54' E 009°10'0 0.0
2017-Jan-13 17:30N 53°54' E 009°10'0 0.0
2017-Jan-13 16:33N 53°54' E 009°10'0 0.0
2017-Jan-13 15:33N 53°54' E 009°10'0 0.0
2017-Jan-13 14:33N 53°54' E 009°10'0 0.0
2017-Jan-13 13:33N 53°54' E 009°10'0 0.0
2017-Jan-13 12:33N 53°54' E 009°10'0 0.0
2017-Jan-13 11:33N 53°54' E 009°10'0 0.0
2017-Jan-13 10:33N 53°54' E 009°10'0 0.0
2017-Jan-13 09:28N 53°54' E 009°10'0 0.0
2017-Jan-13 08:33N 53°54' E 009°10'0 0.0
2017-Jan-13 07:31N 53°54' E 009°10'0 0.0
2017-Jan-13 06:33N 53°54' E 009°10'0 0.0
2017-Jan-13 05:31N 53°54' E 009°10'0 0.0
2017-Jan-13 04:33N 53°54' E 009°10'0 0.0
2017-Jan-13 03:33N 53°54' E 009°10'0 0.0
2017-Jan-13 02:33N 53°54' E 009°10'0 0.0
2017-Jan-13 01:33N 53°54' E 009°10'0 0.0
2017-Jan-13 00:33N 53°54' E 009°10'0 0.0
2017-Jan-12 23:33N 53°54' E 009°10'0 0.0
2017-Jan-12 22:33N 53°54' E 009°10'0 0.0
2017-Jan-12 21:33N 53°54' E 009°10'0 0.0
2017-Jan-12 20:25N 53°54' E 009°10'0 0.0
2017-Jan-12 19:31N 53°54' E 009°10'0 0.0
2017-Jan-12 18:31N 53°54' E 009°10'0 0.0
2017-Jan-12 17:31N 53°54' E 009°10'0 0.0
2017-Jan-12 16:33N 53°54' E 009°10'0 0.0
2017-Jan-12 15:33N 53°54' E 009°10'0 0.0
2017-Jan-12 14:33N 53°54' E 009°10'0 0.0
2017-Jan-12 13:33N 53°54' E 009°10'0 0.0
2017-Jan-12 12:33N 53°54' E 009°10'0 0.0
2017-Jan-12 11:33N 53°54' E 009°10'0 0.0
2017-Jan-12 10:33N 53°54' E 009°10'0 0.0
2017-Jan-12 09:33N 53°54' E 009°10'0 0.0
2017-Jan-12 08:33N 53°54' E 009°10'0 0.0
2017-Jan-12 07:31N 53°54' E 009°10'0 0.0
2017-Jan-12 06:33N 53°54' E 009°10'0 0.0
2017-Jan-12 05:33N 53°54' E 009°10'0 0.0
2017-Jan-12 04:34N 53°54' E 009°10'0 0.0
2017-Jan-12 03:33N 53°54' E 009°10'0 0.0
2017-Jan-12 02:33N 53°54' E 009°10'0 0.0
2017-Jan-12 01:33N 53°54' E 009°10'0 0.0
2017-Jan-12 00:33N 53°54' E 009°10'0 0.0
2017-Jan-11 23:33N 53°54' E 009°10'0 0.0
2017-Jan-11 22:33N 53°54' E 009°10'0 0.0
2017-Jan-11 21:33N 53°54' E 009°10'0 0.0
2017-Jan-11 20:34N 53°54' E 009°10'0 0.0
2017-Jan-11 19:33N 53°54' E 009°10'0 0.0
2017-Jan-11 18:33N 53°54' E 009°10'0 0.0
2017-Jan-11 17:33N 53°54' E 009°10'0 0.0
2017-Jan-11 16:34N 53°54' E 009°10'0 0.0
2017-Jan-11 15:33N 53°54' E 009°10'0 0.0
2017-Jan-11 14:33N 53°54' E 009°10'0 0.0
2017-Jan-11 13:33N 53°54' E 009°10'0 0.0
2017-Jan-11 12:33N 53°54' E 009°10'0 0.0
2017-Jan-11 11:33N 53°54' E 009°10'0 0.0
2017-Jan-11 10:33N 53°54' E 009°10'0 0.0
2017-Jan-11 09:33N 53°54' E 009°10'0 0.0
2017-Jan-11 08:33N 53°54' E 009°10'0 0.0
2017-Jan-11 07:33N 53°54' E 009°10'0 0.0
2017-Jan-11 06:33N 53°54' E 009°10'0 0.3
2017-Jan-11 05:33N 53°54' E 009°10'8 7.9
2017-Jan-11 04:33N 54°01' E 009°18'5 5.3
2017-Jan-11 03:33N 54°06' E 009°20'52 6.3
2017-Jan-10 19:19N 54°34' E 010°35'7 9.8
2017-Jan-10 18:34N 54°35' E 010°48'1010.3
2017-Jan-10 17:34N 54°36' E 011°05'1211.6
2017-Jan-10 16:34N 54°32' E 011°24'1110.8
2017-Jan-10 15:33N 54°29' E 011°42'1010.3
2017-Jan-10 14:33N 54°27' E 011°60'94 7.3
2017-Jan-10 01:33N 53°46' E 014°24'1010.4
2017-Jan-10 00:33N 53°37' E 014°35'9 9.0
2017-Jan-09 23:33N 53°29' E 014°37'4 4.0
2017-Jan-09 22:33N 53°24' E 014°37'0 0.0
2017-Jan-09 21:33N 53°24' E 014°37'0 0.0
2017-Jan-09 20:33N 53°24' E 014°37'0 0.0
2017-Jan-09 19:33N 53°24' E 014°37'0 0.0
2017-Jan-09 18:30N 53°25' E 014°37'0 0.0
2017-Jan-09 17:33N 53°24' E 014°37'0 0.0
2017-Jan-09 16:33N 53°24' E 014°37'0 0.0
2017-Jan-09 15:30N 53°24' E 014°37'0 0.0
2017-Jan-09 14:33N 53°24' E 014°37'0 0.0
2017-Jan-09 13:33N 53°25' E 014°37'0 0.0
2017-Jan-09 12:33N 53°25' E 014°37'0 0.0
2017-Jan-09 11:33N 53°24' E 014°37'0 0.0
2017-Jan-09 10:33N 53°24' E 014°37'0 0.0
2017-Jan-09 09:33N 53°24' E 014°37'0 0.0
2017-Jan-09 08:33N 53°24' E 014°37'0 0.0
2017-Jan-09 07:33N 53°24' E 014°37'0 0.0
2017-Jan-09 06:33N 53°24' E 014°37'0 0.0
2017-Jan-09 05:30N 53°24' E 014°37'0 0.0
2017-Jan-09 04:33N 53°24' E 014°37'0 0.0
2017-Jan-09 03:33N 53°24' E 014°37'0 0.0
2017-Jan-09 02:33N 53°24' E 014°37'0 0.0
2017-Jan-09 01:33N 53°24' E 014°37'0 0.0
2017-Jan-09 00:30N 53°24' E 014°37'0 0.0
2017-Jan-08 23:33N 53°24' E 014°37'0 0.0
2017-Jan-08 22:33N 53°24' E 014°37'0 0.0
2017-Jan-08 21:33N 53°24' E 014°37'0 0.0
2017-Jan-08 20:33N 53°24' E 014°37'0 0.0
2017-Jan-08 19:33N 53°24' E 014°37'0 0.0
2017-Jan-08 18:33N 53°24' E 014°37'0 0.0
2017-Jan-08 17:27N 53°24' E 014°37'0 0.0
2017-Jan-08 16:33N 53°24' E 014°37'0 0.0
2017-Jan-08 15:33N 53°24' E 014°37'0 0.0
2017-Jan-08 14:33N 53°24' E 014°37'0 0.0
2017-Jan-08 13:33N 53°25' E 014°37'0 0.0
2017-Jan-08 12:33N 53°24' E 014°37'4 3.6
2017-Jan-08 11:33N 53°28' E 014°36'9 9.0
2017-Jan-08 10:33N 53°37' E 014°35'1110.9
2017-Jan-08 09:33N 53°46' E 014°24'  

Dump ship's entire track history